Lafayette, IN (47905)

4:38 PM EDT on July 01, 2015 (GMT -0400)
SW Lafayette | | Change Station
CLOSE
Current Station
Personal Weather Station
Location: Lafayette, IN
Elevation: 627 ft
Nearby Weather Stations
Active Advisory: Flood Warning

Elev 627 ft 40.36 °N, 86.94 °W | Updated 14 seconds ago

Mostly Cloudy
Mostly Cloudy
80.4 °F
Feels Like 82 °F
N
0.0
Wind Variable Wind from NNW
Gusts 0.0 mph

Today
High -- | Low -- °F
--% Chance of Precip.
Yesterday
High -- | Low -- °F
Precip. -- in
6:21 AM 9:21 PM
Full, 100% visible
Pressure 29.90 in
Visibility 10.0 miles
Clouds Few 2800 ft
Mostly Cloudy 4600 ft
Heat Index 82 °F
Dew Point 65 °F
Humidity 60%
Rainfall 0.00 in
Snow Depth Not available.
UV 5 out of 12
Pollen 3.50 out of 12
Air Quality Not available.
Flu Activity Not available.
METAR KLAF 011954Z 03003KT 10SM FEW028 BKN046 23/17 A2991 RMK AO2 SLP125 T02330167

More Conditions Fewer Conditions

Pressure 29.90 in
Visibility 10.0 miles
Clouds Few 2800 ft
Mostly Cloudy 4600 ft
Heat Index 82 °F
Dew Point 65 °F
Humidity 60%
Rainfall 0.00 in
Snow Depth Not available.
UV 5 out of 12
Pollen 3.50 out of 12
Air Quality Not available.
Flu Activity Not available.
METAR KLAF 011954Z 03003KT 10SM FEW028 BKN046 23/17 A2991 RMK AO2 SLP125 T02330167

More Conditions Fewer Conditions

10-Day Weather Forecast

×

Almanac

Astronomy

Jul. 01, 2015 Rise Set
Actual Time
Civil Twilight
Nautical Twilight
Astronomical Twilight
Moon
Length of Visible Light
Length of Day
Tomorrow will be .
, % of the Moon is Illuminated

Today's Extremes

State Highs State Lows

Community

WunderPhotos

Upload Photos

1,834,275 photos uploaded!

WunderBlogs® & News

Nearby

Air Quality

  Air Quality AQ Index Pollutant
Not available.

Snow Depth

Station Depth Elevation

Earthquake Activity

City Distance Mag. Time & Date
Minimum magnitude displayed is 2.5.

Coastal Water Temperatures

Place Temperature

Stations

Nearby Weather Stations

Station Location Temp. Windchill Dew Point Humidity Wind Precip. Elev Updated Type
                   
Flood Warning
Statement as of 12:02 PM EDT on July 01, 2015

The Flood Warning continues for
the Wabash River at Lafayette.
* Until further notice.
* At 11:31 am Wednesday the stage was 19.7 feet.
* Flood stage is 11.0 feet.
* Minor flooding is occurring and minor flooding is forecast.
* Forecast... the river will continue rising to near 19.7 feet by this
afternoon. Additional rises may be possible thereafter.
* At 20.0 feet... extensive flooding increases. Flood waters begin to
cover stair Road located on the southeast side of the river just
off sr 225 in NE Tippecanoe County. Low portions of Barton beach
Rd is flooded. Several river residences are nearly isolated by high
water. River residences near Interstate 65 are affected by high
water. River Road near River Bend hospital floods. Local roads
begin to flood in the Granville bridge area. River residents become
concerned.


Lat... Lon 4056 8673 4048 8688 4040 8709 4033 8709
      4040 8688 4054 8670